CYVR/YVR METAR and TAF weather

Enter ICAO airport designator
Station Type Date Time Source
CYVR METAR 2021/01/17 19:00 UTC NOAA

CYVR 171900Z 14003KT 20SM SCT023 BKN031 08/06 A3045 RMK SC4SC2 CU ASOCTD SLP314


Station Type Date Time Source
CYVR Decoded METAR 2021/01/17 19:00 UTC NOAA

Vancouver International Air-Port, B. C., Canada (CYVR) 49-11N 123-10W 2M
Jan 17, 2021 - 02:00 PM EST / 2021.01.17 1900 UTC
Wind: from the SE (140 degrees) at 3 MPH (3 KT):0
Visibility: 20 mile(s):0
Sky conditions: mostly cloudy
Temperature: 46 F (8 C)
Dew Point: 42 F (6 C)
Relative Humidity: 87%
Pressure (altimeter): 30.45 in. Hg (1031 hPa)
ob: CYVR 171900Z 14003KT 20SM SCT023 BKN031 08/06 A3045 RMK SC4SC2 CU ASOCTD SLP314
cycle: 19

Station Type Date Time Source
CYVR TAF 2021/01/17 18:39 UTC NOAA

TAF TAF CYVR 171738Z 1718/1824 06005KT P6SM BKN012 OVC030
TEMPO 1718/1723 SCT012 BKN030
BECMG 1718/1720 29010KT
FM172300 29010KT P6SM FEW008 SCT015
TEMPO 1723/1803 SCT008 BKN015
FM180300 29010KT P6SM FEW003 SCT008
TEMPO 1803/1811 3SM BR SCT003 BKN008
BECMG 1808/1810 08005KT
FM181100 08005KT P6SM FEW006 BKN012
TEMPO 1811/1818 SCT012
FM181800 VRB03KT P6SM SCT020
TEMPO 1818/1821 BKN020
BECMG 1818/1820 28008KT
FM182100 28008KT P6SM FEW020
RMK NXT FCST BY 172100Z

Example: see airport list